• Join FlightAware (Why Join?)
  • Login
  • US Flag 
11:43PM EDT


 

Airport Tracker/Info


-or-


 

Live Flight TrackerFlight Track Log ✈ DAL581 ✈ 14-Feb-2014 ✈ KSEA - RJTT / HND

Flight Track Log - Related Links

Times and Time Zones

All times are in EST time to prevent confusion due to time zone crossing. See the DAL581 flight status page for this flight to view local times or setup timezone preferences in your user account.

Time Position Orientation Groundspeed Altitude Reporting Facility
EST Latitude Longitude Course Direction KTS MPH feet Rate Location/Type
10:16PM 47.4278 -122.3078 321° Northwest 170 196 1,200  Level Seattle Center
10:17PM 47.4053 -122.3081 180° South 172 198 2,200 2,040 Climbing Seattle Center
10:17PM 47.3706 -122.3100 182° South 197 227 3,500 1,860 Climbing Seattle Center
10:18PM 47.3469 -122.3108 181° South 204 235 4,100 2,340 Climbing Seattle Center
10:19PM 47.3103 -122.3833 233° Southwest 248 285 6,700 2,700 Climbing Seattle Center
10:20PM 47.4653 -122.6940 320° Northwest  Level FlightAware Approximate
10:20PM 47.3583 -122.4644 311° West 261 300 9,600  Level Seattle Center
10:21PM 47.5523 -122.8027 321° Northwest  Level FlightAware Approximate
10:21PM 47.4128 -122.5503 313° West 291 335 11,200  Level Seattle Center
10:22PM 47.4789 -122.6528 314° West 344 396 13,200 2,400 Climbing Seattle Center
10:23PM 47.5533 -122.7728 313° West 367 422 16,100 2,580 Climbing Seattle Center
10:24PM 47.6247 -122.8864 313° West 371 427 18,500 2,280 Climbing Seattle Center
10:25PM 47.6872 -123.0136 306° West 381 438 20,800 2,160 Climbing Seattle Center
10:26PM 47.7439 -123.1500 302° West 387 445 22,900 1,560 Climbing Seattle Center
10:27PM 47.8011 -123.2875 302° West 390 449 24,000 540 Climbing Seattle Center
10:28PM 47.8592 -123.4258 302° West 394 453 24,000  Level Seattle Center
10:29PM 47.9147 -123.5650 301° West 393 452 24,000  Level Seattle Center
10:30PM 47.9633 -123.7044 298° West 395 455 24,000  Level Seattle Center
10:31PM 48.0175 -123.8506 299° West 402 463 24,000  Level Seattle Center
10:32PM 48.0706 -123.9953 299° West 399 459 24,000  Level Seattle Center
10:33PM 48.1233 -124.1375 299° West 393 452 24,000  Level Seattle Center
10:34PM 48.1750 -124.2806 298° West 393 452 24,000  Level Seattle Center
10:35PM 48.2272 -124.4256 298° West 394 453 24,000  Level Seattle Center
10:36PM 48.2792 -124.5697 298° West 393 452 24,000  Level Seattle Center
10:37PM 48.3333 -124.7000 302° West 400 460 24,000  Level Vancouver Center
10:38PM 48.4167 -124.8000 321° Northwest 400 460 24,000  Level Vancouver Center
10:39PM 48.5000 -124.9333 313° West 400 460 24,000  Level Vancouver Center
10:40PM 48.5667 -125.0333 315° West 400 460 24,000  Level Vancouver Center
10:41PM 48.6667 -125.1667 319° Northwest 400 460 24,000  Level Vancouver Center
10:42PM 48.7333 -125.3000 307° West 410 472 24,000  Level Vancouver Center
10:43PM 48.8333 -125.4167 322° Northwest 410 472 24,000  Level Vancouver Center
10:44PM 48.9000 -125.5333 311° West 410 472 24,000  Level Vancouver Center
10:45PM 48.9667 -125.6500 311° West 410 472 24,000  Level Vancouver Center
10:46PM 49.0500 -125.7667 317° Northwest 410 472 24,000  Level Vancouver Center
10:47PM 49.1333 -125.8833 318° Northwest 410 472 24,000  Level Vancouver Center
10:48PM 49.2333 -126.0167 319° Northwest 410 472 24,000  Level Vancouver Center
10:49PM 49.3000 -126.1333 311° West 410 472 24,000  Level Vancouver Center
10:50PM 49.4000 -126.2667 319° Northwest 410 472 24,000  Level Vancouver Center
10:51PM 49.4667 -126.3667 316° Northwest 420 483 24,000  Level Vancouver Center
10:52PM 49.5500 -126.5000 314° West 410 472 24,000  Level Vancouver Center
10:53PM 49.6333 -126.6333 314° West 410 472 24,000  Level Vancouver Center
10:54PM 49.7167 -126.7667 314° West 420 483 24,000  Level Vancouver Center
10:55PM 49.8000 -126.8833 318° Northwest 420 483 24,000  Level Vancouver Center
10:56PM 49.8833 -127.0167 314° West 420 483 24,000  Level Vancouver Center
10:57PM 49.9667 -127.1500 314° West 420 483 24,000  Level Vancouver Center
10:58PM 50.0333 -127.2500 316° Northwest 420 483 24,000  Level Vancouver Center
10:59PM 50.1167 -127.4000 311° West 420 483 24,000  Level Vancouver Center
11:00PM 50.2000 -127.5333 314° West 410 472 24,000  Level Vancouver Center
11:01PM 50.3000 -127.6667 320° Northwest 420 483 24,000  Level Vancouver Center
11:02PM 50.3500 -127.7833 304° West 410 472 24,000  Level Vancouver Center
11:03PM 50.4333 -127.9167 314° West 420 483 24,000  Level Vancouver Center
11:04PM 50.5333 -128.0500 320° Northwest 420 483 24,000  Level Vancouver Center
11:05PM 50.6167 -128.1667 318° Northwest 420 483 24,000  Level Vancouver Center
11:06PM 50.6833 -128.3000 308° West 420 483 24,000  Level Vancouver Center
11:07PM 50.7667 -128.4500 311° West 420 483 24,000  Level Vancouver Center
11:08PM 50.8500 -128.5667 319° Northwest 420 483 24,000  Level Vancouver Center
11:09PM 50.9167 -128.7000 308° West 420 483 24,000  Level Vancouver Center
11:10PM 51.0000 -128.8500 311° West 420 483 24,000  Level Vancouver Center
11:11PM 51.1000 -128.9833 320° Northwest 420 483 24,000  Level Vancouver Center
11:12PM 51.1667 -129.1000 312° West 420 483 24,000  Level Vancouver Center
11:13PM 51.2500 -129.2500 312° West 420 483 24,000  Level Vancouver Center
11:14PM 51.3333 -129.3833 315° West 420 483 24,000  Level Vancouver Center
11:15PM 51.4000 -129.5000 313° West 420 483 24,000  Level Vancouver Center
11:16PM 51.5000 -129.6500 317° Northwest 420 483 24,000  Level Vancouver Center
11:17PM 51.5667 -129.8000 306° West 420 483 24,000  Level Vancouver Center
11:18PM 51.6500 -129.9333 315° West 420 483 24,000  Level Vancouver Center
11:19PM 51.7333 -130.0500 319° Northwest 420 483 24,000  Level Vancouver Center
11:20PM 51.8000 -130.2000 306° West 420 483 24,000  Level Vancouver Center
11:21PM 51.8833 -130.3500 312° West 420 483 24,000  Level Vancouver Center
11:22PM 51.9667 -130.5000 312° West 420 483 24,000  Level Vancouver Center
11:23PM 52.0500 -130.6167 319° Northwest 420 483 24,000  Level Vancouver Center
11:24PM 52.1167 -130.7667 306° West 420 483 24,000  Level Vancouver Center
11:25PM 52.2000 -130.9167 312° West 420 483 24,000  Level Vancouver Center
11:26PM 52.2667 -131.0667 306° West 420 483 24,000  Level Vancouver Center
11:27PM 52.3500 -131.1833 319° Northwest 420 483 24,000  Level Vancouver Center
11:28PM 52.4333 -131.3333 312° West 420 483 24,000  Level Vancouver Center
11:29PM 52.5167 -131.4833 312° West 420 483 24,000  Level Vancouver Center
11:30PM 52.5833 -131.6167 309° West 420 483 24,000  Level Vancouver Center
11:31PM 52.6667 -131.7667 313° West 420 483 24,000  Level Vancouver Center
11:32PM 52.7333 -131.9167 306° West 420 483 24,000  Level Vancouver Center
11:33PM 52.8333 -132.0667 318° Northwest 430 495 24,000  Level Vancouver Center
11:34PM 52.9000 -132.2000 310° West 430 495 24,000  Level Vancouver Center
11:35PM 52.9833 -132.3500 313° West 420 483 24,000  Level Vancouver Center
11:36PM 53.0500 -132.5000 307° West 420 483 24,000  Level Vancouver Center
11:37PM 53.1167 -132.6500 307° West 420 483 24,000  Level Vancouver Center
11:38PM 53.2167 -132.8167 315° West 420 483 24,000  Level Vancouver Center
11:39PM 53.2833 -132.9500 310° West 420 483 24,000  Level Vancouver Center
11:40PM 53.3500 -133.1000 307° West 420 483 24,000  Level Vancouver Center
11:41PM 53.4333 -133.2500 313° West 420 483 24,000  Level Vancouver Center
11:42PM 53.5000 -133.4167 304° West 420 483 24,000 240 Level Vancouver Center
11:43PM 53.5667 -133.5500 310° West 420 483 24,500 1,200 Climbing Vancouver Center
11:44PM 53.6667 -133.7000 318° Northwest 420 483 26,400 1,800 Climbing Vancouver Center
11:45PM 53.7333 -133.8667 304° West 430 495 28,200 1,740 Climbing Vancouver Center
11:46PM 53.8000 -134.0000 310° West 430 495 29,900 1,620 Climbing Vancouver Center
11:47PM 53.8833 -134.1500 313° West 430 495 31,500 1,020 Climbing Vancouver Center
11:48PM 53.9667 -134.3167 310° West 430 495 32,000 240 Climbing Vancouver Center
11:49PM 54.0333 -134.4833 304° West 430 495 32,000  Level Vancouver Center
11:50PM 54.1000 -134.6333 307° West 440 506 32,000  Level Vancouver Center
11:51PM 54.1833 -134.8000 311° West 440 506 32,000  Level Vancouver Center
11:52PM 54.2667 -134.9333 317° Northwest 450 518 32,000  Level Vancouver Center
11:53PM 54.3500 -135.1333 306° West 450 518 32,000  Level Vancouver Center
11:54PM 54.4500 -135.2833 319° Northwest 440 506 32,000  Level Anchorage Center
11:55PM 54.5167 -135.4167 311° West 440 506 32,000  Level Anchorage Center
11:56PM 54.6000 -135.5833 311° West 440 506 32,000  Level Anchorage Center
11:57PM 54.6667 -135.7500 305° West 440 506 32,000  Level Anchorage Center
11:58PM 54.7500 -135.9167 311° West 440 506 32,000  Level Anchorage Center
11:59PM 54.8333 -136.1000 308° West 440 506 32,000  Level Anchorage Center
12:00AM 54.8667 -136.2833 288° West 440 506 32,000  Level Vancouver Center
12:01AM 54.9500 -136.4500 311° West 440 506 32,000  Level Vancouver Center
12:02AM 55.0333 -136.5833 318° Northwest 440 506 32,000  Level Vancouver Center
12:03AM 55.1167 -136.7667 309° West 440 506 32,000  Level Vancouver Center
12:04AM 55.1833 -136.9333 305° West 440 506 32,000  Level Vancouver Center
12:05AM 55.2833 -137.1000 317° Northwest 430 495 32,000  Level Anchorage Center
12:06AM 55.3667 -137.2833 309° West 440 506 32,000  Level Anchorage Center
12:07AM 55.4167 -137.4500 298° West 440 506 32,000  Level Vancouver Center
12:08AM 55.4667 -137.6167 298° West 440 506 32,000  Level Vancouver Center
12:09AM 55.5667 -137.7667 320° Northwest 440 506 32,000 300 Level Vancouver Center
12:10AM 55.6167 -137.9500 296° West 440 506 32,600 900 Climbing Vancouver Center
12:11AM 55.7000 -138.1333 309° West 440 506 33,800 660 Climbing Vancouver Center
12:12AM 55.7667 -138.3000 305° West 440 506 34,000 60 Climbing Vancouver Center
12:13AM 55.8500 -138.4833 309° West 440 506 34,000  Level Vancouver Center
12:14AM 55.9167 -138.6500 306° West 440 506 34,000  Level Vancouver Center
12:15AM 56.0000 -138.8333 309° West 450 518 34,000  Level Vancouver Center
12:16AM 56.0667 -139.0167 303° West 450 518 34,000  Level Vancouver Center
12:17AM 56.1333 -139.2000 303° West 450 518 34,000  Level Vancouver Center
12:18AM 56.2167 -139.3833 309° West 450 518 34,000  Level Vancouver Center
12:19AM 56.2833 -139.5500 306° West 450 518 34,000  Level Vancouver Center
12:20AM 56.3500 -139.7500 301° West 450 518 34,000  Level Vancouver Center
12:21AM 56.4333 -139.9500 307° West 460 529 34,000  Level Vancouver Center
12:22AM 56.5000 -140.1333 303° West 460 529 34,000  Level Vancouver Center
12:23AM 56.5333 -140.3167 288° West 460 529 34,000  Level Vancouver Center
12:24AM 56.6000 -140.5167 301° West 450 518 34,000  Level Vancouver Center
12:25AM 56.6333 -140.7000 288° West 450 518 34,000  Level Vancouver Center
12:26AM 56.7167 -140.9333 303° West 450 518 34,000  Level Anchorage Center
12:27AM 56.7667 -141.1333 295° West 440 506 34,000  Level Anchorage Center
12:28AM 56.8167 -141.3500 293° West 440 506 34,000  Level Anchorage Center
12:29AM 56.8667 -141.5500 295° West 440 506 34,000  Level Anchorage Center
12:30AM 56.9167 -141.7500 295° West 430 495 34,000  Level Anchorage Center
12:31AM 56.9667 -141.9667 293° West 450 518 34,000  Level Anchorage Center
12:32AM 57.0167 -142.1833 293° West 440 506 34,000  Level Anchorage Center
12:33AM 57.0667 -142.3833 295° West 440 506 34,000  Level Anchorage Center
12:34AM 57.1167 -142.6000 293° West 440 506 34,000  Level Anchorage Center
12:35AM 57.1667 -142.8167 293° West 450 518 34,000  Level Anchorage Center
12:36AM 57.2000 -143.0333 286° West 440 506 34,000  Level Anchorage Center
12:37AM 57.2500 -143.2500 293° West 450 518 34,000  Level Anchorage Center
12:38AM 57.3000 -143.4667 293° West 440 506 34,000  Level Anchorage Center
12:39AM 57.3500 -143.6833 293° West 450 518 34,000  Level Anchorage Center
12:40AM 57.4000 -143.9000 293° West 450 518 34,000  Level Anchorage Center
12:41AM 57.4333 -144.1167 286° West 440 506 34,000  Level Anchorage Center
12:42AM 57.4833 -144.3333 293° West 450 518 34,000  Level Anchorage Center
12:43AM 57.5333 -144.5500 293° West 450 518 34,000  Level Anchorage Center
12:44AM 57.5667 -144.7667 286° West 440 506 34,000  Level Anchorage Center
12:45AM 57.6167 -145.0000 292° West 450 518 34,000  Level Anchorage Center
12:46AM 57.6667 -145.2167 293° West 450 518 34,000  Level Anchorage Center
12:47AM 57.7000 -145.4333 286° West 450 518 34,000  Level Anchorage Center
12:48AM 57.7500 -145.6500 293° West 450 518 34,000  Level Anchorage Center
12:49AM 57.7833 -145.8833 285° West 450 518 34,000  Level Anchorage Center
12:50AM 57.8333 -146.1000 294° West 450 518 34,000  Level Anchorage Center
12:51AM 57.8667 -146.3333 285° West 450 518 34,000  Level Anchorage Center
12:52AM 57.9167 -146.5500 294° West 440 506 34,000  Level Anchorage Center
12:54AM 58.0000 -147.0167 289° West 470 541 34,000  Level Anchorage Center
12:55AM 58.0333 -147.2500 285° West 470 541 34,000  Level Anchorage Center
12:56AM 58.0833 -147.4667 294° West 440 506 34,000  Level Anchorage Center
12:57AM 58.1167 -147.7000 285° West 440 506 34,000  Level Anchorage Center
12:58AM 58.1667 -147.9333 292° West 450 518 34,000  Level Anchorage Center
12:59AM 58.2000 -148.1500 286° West 450 518 34,000  Level Anchorage Center
01:00AM 58.2333 -148.3833 285° West 450 518 34,000  Level Anchorage Center
01:01AM 58.2667 -148.6167 285° West 450 518 34,000  Level Anchorage Center
01:02AM 58.3167 -148.8500 292° West 450 518 34,000  Level Anchorage Center
01:03AM 58.3500 -149.0833 285° West 450 518 34,000  Level Anchorage Center
01:04AM 58.3833 -149.3167 285° West 450 518 34,000  Level Anchorage Center
01:05AM 58.4167 -149.5500 285° West 450 518 34,000  Level Anchorage Center
01:06AM 58.4667 -149.7833 292° West 450 518 34,000  Level Anchorage Center
01:07AM 58.5000 -150.0167 285° West 450 518 34,000  Level Anchorage Center
01:08AM 58.5167 -150.2333 278° West 450 518 34,000  Level Anchorage Center
01:09AM 58.5500 -150.4667 285° West 440 506 34,000  Level Anchorage Center
01:10AM 58.5833 -150.7167 284° West 440 506 34,000  Level Anchorage Center
01:11AM 58.6000 -150.9500 278° West 450 518 34,000  Level Anchorage Center
01:12AM 58.6333 -151.1833 285° West 460 529 34,000  Level Anchorage Center
01:13AM 58.6500 -151.4333 277° West 450 518 34,000  Level Anchorage Center
01:14AM 58.6833 -151.6667 285° West 450 518 34,000  Level Anchorage Center
01:15AM 58.7000 -151.9000 278° West 450 518 34,000  Level Anchorage Center
01:16AM 58.7333 -152.1333 285° West 450 518 34,000  Level Anchorage Center
01:17AM 58.7500 -152.3667 278° West 440 506 34,000  Level Anchorage Center
01:18AM 58.7833 -152.6000 286° West 440 506 34,000  Level Anchorage Center
01:19AM 58.8000 -152.8667 277° West 450 518 34,000  Level Anchorage Center
01:20AM 58.8167 -153.1000 278° West 440 506 34,000  Level Anchorage Center
01:21AM 58.8500 -153.3333 286° West 440 506 34,000  Level Anchorage Center
01:22AM 58.8667 -153.5667 278° West 450 518 34,000  Level Anchorage Center
01:23AM 58.9000 -153.8167 285° West 440 506 34,000  Level Anchorage Center
01:24AM 58.9167 -154.0500 278° West 450 518 34,000  Level Anchorage Center
01:25AM 58.9333 -154.2833 278° West 450 518 34,000  Level Anchorage Center
01:26AM 58.9500 -154.5333 277° West 450 518 34,000  Level Anchorage Center
01:27AM 58.9667 -154.7667 278° West 450 518 34,000  Level Anchorage Center
01:29AM 59.0000 -155.0167 285° West 450 518 34,000  Level Anchorage Center
01:30AM 59.0167 -155.2500 278° West 450 518 34,000  Level Anchorage Center
01:31AM 59.0333 -155.4833 278° West 440 506 34,000  Level Anchorage Center
01:32AM 59.0500 -155.7333 277° West 450 518 34,000  Level Anchorage Center
01:33AM 59.0667 -155.9667 278° West 440 506 34,000  Level Anchorage Center
01:34AM 59.0833 -156.2000 278° West 440 506 34,000  Level Anchorage Center
01:35AM 59.1000 -156.5000 276° West 440 506 34,000  Level Anchorage Center
01:36AM 59.1167 -156.7333 278° West 440 506 34,000  Level Anchorage Center
01:37AM 59.1333 -156.9667 278° West 440 506 34,000  Level Anchorage Center
01:38AM 59.1500 -157.2000 278° West 440 506 34,000  Level Anchorage Center
01:39AM 59.1667 -157.4500 278° West 440 506 34,000  Level Anchorage Center
01:40AM 59.1833 -157.6833 278° West 440 506 34,000  Level Anchorage Center
01:41AM 59.1833 -157.9167 270° West 440 506 34,000  Level Anchorage Center
01:42AM 59.2000 -158.1667 278° West 440 506 34,000  Level Anchorage Center
01:43AM 59.2167 -158.4000 278° West 440 506 34,000  Level Anchorage Center
01:44AM 59.2333 -158.6500 278° West 440 506 34,000  Level Anchorage Center
01:45AM 59.2333 -158.8833 270° West 440 506 34,000  Level Anchorage Center
01:46AM 59.2500 -159.1333 278° West 440 506 34,000  Level Anchorage Center
01:47AM 59.2667 -159.3667 278° West 440 506 34,000  Level Anchorage Center
01:48AM 59.2667 -159.6167 270° West 450 518 34,000  Level Anchorage Center
01:49AM 59.2833 -159.8500 278° West 440 506 34,000  Level Anchorage Center
01:50AM 59.3000 -160.1000 278° West 440 506 34,000  Level Anchorage Center
01:51AM 59.3000 -160.3333 270° West 440 506 34,000  Level Anchorage Center
01:52AM 59.3167 -160.5833 278° West 440 506 34,000  Level Anchorage Center
01:53AM 59.3167 -160.8167 270° West 440 506 34,000  Level Anchorage Center
01:54AM 59.3333 -161.0500 278° West 440 506 34,000  Level Anchorage Center
01:55AM 59.3333 -161.3000 270° West 430 495 34,000  Level Anchorage Center
01:56AM 59.3500 -161.5333 278° West 440 506 34,000  Level Anchorage Center
01:57AM 59.3500 -161.7833 270° West 440 506 34,000  Level Anchorage Center
01:58AM 59.3500 -162.0167 270° West 430 495 34,000  Level Anchorage Center
01:59AM 59.3667 -162.2500 278° West 440 506 34,000  Level Anchorage Center
02:00AM 59.3667 -162.4833 270° West 430 495 34,000  Level Anchorage Center
02:01AM 59.3667 -162.7833 270° West 430 495 34,000  Level Anchorage Center
02:02AM 59.3667 -163.0167 270° West 430 495 34,000  Level Anchorage Center
02:03AM 59.3500 -163.2500 262° West 440 506 34,000  Level Anchorage Center
02:04AM 59.3333 -163.5000 263° West 440 506 34,000  Level Anchorage Center
02:05AM 59.3167 -163.7333 262° West 430 495 34,000  Level Anchorage Center
02:06AM 59.3000 -163.9667 262° West 440 506 34,000  Level Anchorage Center
02:07AM 59.2833 -164.2167 263° West 440 506 34,000  Level Anchorage Center
02:08AM 59.2667 -164.4500 262° West 440 506 34,000  Level Anchorage Center
02:09AM 59.2500 -164.6833 262° West 430 495 34,000  Level Anchorage Center
02:10AM 59.2333 -164.9167 262° West 430 495 34,000  Level Anchorage Center
02:11AM 59.2167 -165.1500 262° West 440 506 34,000  Level Anchorage Center
02:12AM 59.2000 -165.3833 262° West 430 495 34,000  Level Anchorage Center
02:13AM 59.1667 -165.6167 255° West 430 495 34,000  Level Anchorage Center
02:14AM 59.1500 -165.8500 262° West 430 495 34,000  Level Anchorage Center
02:15AM 59.1333 -166.0833 262° West 430 495 34,000  Level Anchorage Center
02:16AM 59.1167 -166.3167 262° West 430 495 34,000  Level Anchorage Center
02:17AM 59.0833 -166.5333 253° West 420 483 34,000  Level Anchorage Center
02:18AM 59.0667 -166.7667 262° West 430 495 34,000  Level Anchorage Center
02:19AM 59.0333 -167.0000 255° West 430 495 34,000  Level Anchorage Center
02:20AM 59.0167 -167.2333 262° West 430 495 34,000  Level Anchorage Center
02:21AM 59.0000 -167.4667 262° West 430 495 34,000  Level Anchorage Center
02:22AM 58.9667 -167.6833 253° West 430 495 34,000  Level Anchorage Center
02:23AM 58.9500 -167.9167 262° West 420 483 34,000  Level Anchorage Center
02:24AM 58.9167 -168.1500 255° West 430 495 34,000  Level Anchorage Center
02:25AM 58.9000 -168.3833 262° West 440 506 34,000  Level Anchorage Center
02:26AM 58.8667 -168.6000 254° West 430 495 34,000  Level Anchorage Center
02:27AM 58.8500 -168.8333 262° West 420 483 34,000  Level Anchorage Center
02:28AM 58.8167 -169.0500 254° West 430 495 34,000  Level Anchorage Center
02:29AM 58.8000 -169.2833 262° West 430 495 34,000  Level Anchorage Center
02:30AM 58.7667 -169.5000 254° West 420 483 34,000  Level Anchorage Center
02:31AM 58.7333 -169.7333 255° West 430 495 34,000  Level Anchorage Center
02:32AM 58.7167 -169.9500 262° West 430 495 34,000  Level Anchorage Center
02:33AM 58.6833 -170.1833 255° West 430 495 34,000  Level Anchorage Center
02:34AM 58.6500 -170.4000 254° West 430 495 34,000  Level Anchorage Center
02:35AM 58.6167 -170.6167 254° West 420 483 34,000  Level Anchorage Center
02:36AM 58.6000 -170.8500 262° West 430 495 34,000  Level Anchorage Center
02:37AM 58.5667 -171.0833 255° West 430 495 34,000  Level Anchorage Center
02:38AM 58.5333 -171.3000 254° West 430 495 34,000  Level Anchorage Center
02:39AM 58.5000 -171.5167 254° West 420 483 34,000  Level Anchorage Center
02:40AM 58.4667 -171.7500 255° West 430 495 34,000  Level Anchorage Center
02:41AM 58.4333 -171.9667 254° West 430 495 34,000  Level Anchorage Center
02:42AM 58.4000 -172.1833 254° West 430 495 34,000  Level Anchorage Center
02:43AM 58.3667 -172.4167 255° West 440 506 34,000  Level Anchorage Center
02:44AM 58.3333 -172.6333 254° West 430 495 34,000  Level Anchorage Center
02:45AM 58.3167 -172.8500 262° West 420 483 34,000  Level Anchorage Center
02:46AM 58.2667 -173.0833 248° West 430 495 34,000  Level Anchorage Center
02:47AM 58.2333 -173.3000 254° West 430 495 34,000  Level Anchorage Center
02:48AM 58.2000 -173.5167 254° West 430 495 34,000  Level Anchorage Center
02:49AM 58.1667 -173.7500 255° West 440 506 34,000  Level Anchorage Center
02:50AM 58.1333 -173.9667 254° West 430 495 34,000  Level Anchorage Center
02:51AM 58.1000 -174.1833 254° West 430 495 34,000  Level Anchorage Center
02:52AM 58.0667 -174.4000 254° West 440 506 34,000  Level Anchorage Center
02:53AM 58.0333 -174.6167 254° West 430 495 34,000  Level Anchorage Center
02:54AM 57.9833 -174.8333 247° West 430 495 34,000  Level Anchorage Center
02:55AM 57.9500 -175.0500 254° West 430 495 34,000  Level Anchorage Center
02:56AM 57.9167 -175.2833 255° West 440 506 34,000  Level Anchorage Center
02:57AM 57.8833 -175.5000 254° West 430 495 34,000  Level Anchorage Center
02:58AM 57.8333 -175.7167 247° West 440 506 34,000  Level Anchorage Center
02:59AM 57.8000 -175.9333 254° West 430 495 34,000  Level Anchorage Center
03:00AM 57.7667 -176.1500 254° West 430 495 34,000  Level Anchorage Center
03:01AM 57.7167 -176.3667 247° West 460 529 34,000  Level Anchorage Center
03:04AM 57.6667 -176.7167 251° West 443 510 34,000  Level Anchorage Center
03:12AM 57.2667 -178.7833 249° West 446 513 34,000  Level Anchorage Center
03:18AM 57.0000 180.0000 249° West 455 524 34,000  Level Anchorage Center
03:22AM 56.8167 179.1667 248° West 453 521 34,000  Level Anchorage Center
03:31AM 56.3500 177.1667 246° West 449 517 34,000  Level Anchorage Center
03:39AM 55.9500 175.6000 244° Southwest 500 575 34,000  Level Anchorage Center
03:40AM 55.9375 175.5319 245° Southwest 449 517 34,000  Level FlightAware Transoceanic
03:40AM 55.9000 175.4333 242° Southwest 470 541 34,000  Level Anchorage Center
03:41AM 55.8845 175.3300 245° Southwest 449 517 34,000  Level FlightAware Transoceanic
03:41AM 55.8500 175.2167 248° West 450 518 34,000  Level Anchorage Center
03:42AM 55.8311 175.1287 245° Southwest 449 517 34,000  Level FlightAware Transoceanic
03:42AM 55.8000 175.0500 242° Southwest 450 518 34,000  Level Anchorage Center
03:43AM 55.7774 174.9280 244° Southwest 449 517 34,000  Level FlightAware Transoceanic
03:43AM 55.7333 174.8167 243° Southwest 460 529 34,000  Level Anchorage Center
03:44AM 55.7233 174.7278 244° Southwest 449 517 34,000  Level FlightAware Transoceanic
03:44AM 55.6833 174.6333 244° Southwest 460 529 34,000  Level Anchorage Center
03:45AM 55.6333 174.4167 248° West 450 518 34,000  Level Anchorage Center
03:46AM 55.5833 174.2500 242° Southwest 450 518 34,000  Level Anchorage Center
03:47AM 55.5167 174.0333 242° Southwest 450 518 34,000  Level Anchorage Center
03:48AM 55.4667 173.8167 248° West 450 518 34,000  Level Anchorage Center
03:49AM 55.4167 173.6500 242° Southwest 450 518 34,000  Level Anchorage Center
03:50AM 55.3500 173.4333 242° Southwest 450 518 34,000  Level Anchorage Center
03:51AM 55.3000 173.2500 244° Southwest 460 529 34,000  Level Anchorage Center
03:52AM 55.2333 173.0500 240° Southwest 450 518 34,000  Level Anchorage Center
03:53AM 55.1833 172.8667 245° Southwest 450 518 34,000  Level Anchorage Center
03:54AM 55.1333 172.6667 246° West 430 495 34,000  Level Anchorage Center
03:55AM 55.0667 172.4500 242° Southwest 450 518 34,000  Level Anchorage Center
03:56AM 55.0167 172.2833 242° Southwest 450 518 34,000  Level Anchorage Center
03:57AM 54.9500 172.0667 242° Southwest 460 529 34,000  Level Anchorage Center
03:58AM 54.9000 171.9000 243° Southwest 440 506 34,000  Level Anchorage Center
03:59AM 54.8167 171.7167 232° Southwest 450 518 34,000  Level Anchorage Center
04:00AM 54.7500 171.5667 232° Southwest 440 506 34,000  Level Anchorage Center
04:01AM 54.6667 171.3667 234° Southwest 450 518 34,000  Level Anchorage Center
04:02AM 54.6000 171.2167 233° Southwest 460 529 34,000  Level Anchorage Center
04:03AM 54.5333 171.0167 240° Southwest 450 518 34,000  Level Anchorage Center
04:04AM 54.4500 170.8333 232° Southwest 460 529 34,000  Level Anchorage Center
04:05AM 54.3833 170.6833 233° Southwest 460 529 34,000  Level Anchorage Center
04:06AM 54.3000 170.4833 235° Southwest 460 529 34,000  Level Anchorage Center
04:07AM 54.2333 170.3333 233° Southwest 470 541 34,000  Level Anchorage Center
04:08AM 54.1500 170.1500 232° Southwest 460 529 34,000  Level Anchorage Center
04:09AM 54.0833 170.0000 233° Southwest 460 529 34,000  Level Anchorage Center
04:10AM 54.0000 169.8000 235° Southwest 460 529 34,000  Level Anchorage Center
04:11AM 53.9167 169.6167 232° Southwest 460 529 34,000  Level Anchorage Center
04:12AM 53.8500 169.4667 233° Southwest 460 529 34,000  Level Anchorage Center
04:13AM 53.7500 169.2833 227° Southwest 460 529 34,000  Level Anchorage Center
04:14AM 53.7000 169.1333 241° Southwest 460 529 34,000  Level Anchorage Center
04:20AM 53.4167 168.2333 239° Southwest 441 507 34,000  Level Anchorage Center
04:20AM 53.3833 168.1500 239° Southwest 440 506 34,000  Level Anchorage Center
04:29AM 52.7667 166.4667 238° Southwest 438 504 34,000  Level Anchorage Center
04:39AM 52.1500 164.8500 236° Southwest 440 506 34,000  Level Anchorage Center
04:46AM 51.6500 163.6500 236° Southwest 424 488 34,000  Level Anchorage Center
04:48AM 51.5000 163.2667 236° Southwest 418 481 34,000  Level Anchorage Center
04:58AM 50.8500 161.7667 235° Southwest 411 473 34,000 60 Level Anchorage Center
05:07AM 50.2000 160.3500 233° Southwest 413 475 36,000  Climbing Anchorage Center
05:08AM 50.1894 160.3312 234° Southwest 411 473 34,000 -1,620 Descending FlightAware Transoceanic
05:09AM 50.1224 160.1898 233° Southwest 411 473 34,000  Level FlightAware Transoceanic
05:10AM 50.0552 160.0489 233° Southwest 411 473 34,000  Level FlightAware Transoceanic
05:11AM 49.9878 159.9083 233° Southwest 411 473 34,000  Level FlightAware Transoceanic
05:12AM 49.9203 159.7681 233° Southwest 411 473 34,000 960 Level FlightAware Transoceanic
05:13AM 49.8556 159.6337 233° Southwest 413 475 36,000 960 Climbing FlightAware Transoceanic
05:14AM 49.7862 159.4916 233° Southwest 413 475 36,000  Level FlightAware Transoceanic
05:15AM 49.7167 159.3500 233° Southwest 413 475 36,000  Level FlightAware Transoceanic
05:16AM 49.6515 159.2170 233° Southwest 413 475 36,000  Level FlightAware Transoceanic
05:17AM 49.5863 159.0844 233° Southwest 413 475 36,000  Level FlightAware Transoceanic
05:18AM 49.5208 158.9521 233° Southwest 413 475 36,000  Level FlightAware Transoceanic
05:19AM 49.4553 158.8201 233° Southwest 413 475 36,000  Level FlightAware Transoceanic
05:20AM 49.3895 158.6886 232° Southwest 413 475 36,000  Level FlightAware Transoceanic
05:21AM 49.3237 158.5573 232° Southwest 413 475 36,000  Level FlightAware Transoceanic
05:22AM 49.2576 158.4264 232° Southwest 413 475 36,000  Level FlightAware Transoceanic
05:23AM 49.1915 158.2959 232° Southwest 413 475 36,000  Level FlightAware Transoceanic
05:24AM 49.1252 158.1657 232° Southwest 413 475 36,000  Level FlightAware Transoceanic
05:25AM 49.0587 158.0359 232° Southwest 413 475 36,000  Level FlightAware Transoceanic
05:26AM 48.9921 157.9064 232° Southwest 413 475 36,000  Level FlightAware Transoceanic
05:27AM 48.9253 157.7773 232° Southwest 413 475 36,000  Level FlightAware Transoceanic
05:28AM 48.8584 157.6485 232° Southwest 413 475 36,000  Level FlightAware Transoceanic
05:29AM 48.7914 157.5200 232° Southwest 413 475 36,000  Level FlightAware Transoceanic
05:30AM 48.7242 157.3919 231° Southwest 413 475 36,000  Level FlightAware Transoceanic
05:31AM 48.6569 157.2642 231° Southwest 413 475 36,000  Level FlightAware Transoceanic
05:32AM 48.5894 157.1367 231° Southwest 413 475 36,000  Level FlightAware Transoceanic
05:33AM 48.5218 157.0097 231° Southwest 413 475 36,000  Level FlightAware Transoceanic
05:34AM 48.4541 156.8829 231° Southwest 413 475 36,000  Level FlightAware Transoceanic
05:35AM 48.3862 156.7565 231° Southwest 413 475 36,000  Level FlightAware Transoceanic
05:36AM 48.3182 156.6304 231° Southwest 413 475 36,000  Level FlightAware Transoceanic
05:37AM 48.2500 156.5047 231° Southwest 413 475 36,000  Level FlightAware Transoceanic
05:38AM 48.1817 156.3793 231° Southwest 413 475 36,000  Level FlightAware Transoceanic
05:39AM 48.1133 156.2543 231° Southwest 413 475 36,000  Level FlightAware Transoceanic
05:40AM 48.0447 156.1295 231° Southwest 413 475 36,000  Level FlightAware Transoceanic
05:41AM 47.9760 156.0051 230° Southwest 413 475 36,000  Level FlightAware Transoceanic
05:42AM 47.9072 155.8811 230° Southwest 413 475 36,000  Level FlightAware Transoceanic
05:43AM 47.8382 155.7573 230° Southwest 413 475 36,000  Level FlightAware Transoceanic
05:44AM 47.7691 155.6339 230° Southwest 413 475 36,000  Level FlightAware Transoceanic
05:45AM 47.6999 155.5108 230° Southwest 413 475 36,000  Level FlightAware Transoceanic
05:46AM 47.6305 155.3881 230° Southwest 413 475 36,000  Level FlightAware Transoceanic
05:47AM 47.5610 155.2657 230° Southwest 413 475 36,000  Level FlightAware Transoceanic
05:48AM 47.4914 155.1435 230° Southwest 413 475 36,000  Level FlightAware Transoceanic
05:49AM 47.4216 155.0218 230° Southwest 413 475 36,000  Level FlightAware Transoceanic
05:50AM 47.3518 154.9003 230° Southwest 413 475 36,000  Level FlightAware Transoceanic
05:51AM 47.2817 154.7792 230° Southwest 413 475 36,000  Level FlightAware Transoceanic
05:52AM 47.2116 154.6584 229° Southwest 413 475 36,000  Level FlightAware Transoceanic
05:53AM 47.1413 154.5379 229° Southwest 413 475 36,000  Level FlightAware Transoceanic
05:54AM 47.0709 154.4177 229° Southwest 413 475 36,000  Level FlightAware Transoceanic
05:55AM 47.0004 154.2978 229° Southwest 413 475 36,000  Level FlightAware Transoceanic
05:56AM 46.9298 154.1783 229° Southwest 413 475 36,000  Level FlightAware Transoceanic
05:57AM 46.8590 154.0591 229° Southwest 413 475 36,000  Level FlightAware Transoceanic
05:58AM 46.7881 153.9401 229° Southwest 413 475 36,000  Level FlightAware Transoceanic
05:59AM 46.7171 153.8215 229° Southwest 413 475 36,000  Level FlightAware Transoceanic
06:00AM 46.6460 153.7032 229° Southwest 413 475 36,000  Level FlightAware Transoceanic
06:01AM 46.5747 153.5853 229° Southwest 413 475 36,000  Level FlightAware Transoceanic
06:02AM 46.5034 153.4676 229° Southwest 413 475 36,000  Level FlightAware Transoceanic
06:03AM 46.4319 153.3502 228° Southwest 413 475 36,000  Level FlightAware Transoceanic
06:04AM 46.3603 153.2332 228° Southwest 413 475 36,000  Level FlightAware Transoceanic
06:05AM 46.2885 153.1164 228° Southwest 413 475 36,000  Level FlightAware Transoceanic
06:06AM 46.2110 152.9909 228° Southwest  Level FlightAware Approximate
06:07AM 46.2056 152.9814 229° Southwest  Level FlightAware Approximate
06:08AM 46.1297 152.8541 229° Southwest  Level FlightAware Approximate
06:09AM 46.0536 152.7271 229° Southwest  Level FlightAware Approximate
06:10AM 45.9773 152.6004 229° Southwest  Level FlightAware Approximate
06:11AM 45.9009 152.4741 229° Southwest  Level FlightAware Approximate
06:12AM 45.8244 152.3482 229° Southwest  Level FlightAware Approximate
06:13AM 45.7477 152.2226 229° Southwest  Level FlightAware Approximate
06:14AM 45.6709 152.0973 229° Southwest  Level FlightAware Approximate
06:15AM 45.5940 151.9724 229° Southwest  Level FlightAware Approximate
06:16AM 45.5169 151.8478 229° Southwest  Level FlightAware Approximate
06:17AM 45.4397 151.7236 228° Southwest  Level FlightAware Approximate
06:18AM 45.3624 151.5997 228° Southwest  Level FlightAware Approximate
06:19AM 45.2849 151.4762 228° Southwest  Level FlightAware Approximate
06:20AM 45.2073 151.3529 228° Southwest  Level FlightAware Approximate
06:21AM 45.1296 151.2301 228° Southwest  Level FlightAware Approximate
06:22AM 45.0517 151.1075 228° Southwest  Level FlightAware Approximate
06:23AM 44.9737 150.9853 228° Southwest  Level FlightAware Approximate
06:24AM 44.8956 150.8634 228° Southwest  Level FlightAware Approximate
06:25AM 44.8173 150.7419 228° Southwest  Level FlightAware Approximate
06:26AM 44.7389 150.6207 228° Southwest  Level FlightAware Approximate
06:27AM 44.6604 150.4998 228° Southwest  Level FlightAware Approximate
06:28AM 44.5817 150.3792 228° Southwest  Level FlightAware Approximate
06:29AM 44.5030 150.2590 227° Southwest  Level FlightAware Approximate
06:30AM 44.4241 150.1391 227° Southwest  Level FlightAware Approximate
06:31AM 44.3451 150.0195 227° Southwest  Level FlightAware Approximate
06:32AM 44.2659 149.9002 227° Southwest  Level FlightAware Approximate
06:33AM 44.1866 149.7812 227° Southwest  Level FlightAware Approximate
06:34AM 44.1073 149.6626 227° Southwest  Level FlightAware Approximate
06:35AM 44.0277 149.5443 227° Southwest  Level FlightAware Approximate
06:36AM 43.9481 149.4263 227° Southwest  Level FlightAware Approximate
06:37AM 43.8683 149.3086 227° Southwest  Level FlightAware Approximate
06:38AM 43.7885 149.1913 227° Southwest  Level FlightAware Approximate
06:39AM 43.7085 149.0742 227° Southwest  Level FlightAware Approximate
06:40AM 43.6283 148.9575 227° Southwest  Level FlightAware Approximate
06:41AM 43.5481 148.8411 226° Southwest  Level FlightAware Approximate
06:42AM 43.4678 148.7250 226° Southwest  Level FlightAware Approximate
06:43AM 43.3873 148.6092 226° Southwest  Level FlightAware Approximate
06:44AM 43.3067 148.4937 226° Southwest  Level FlightAware Approximate
06:45AM 43.2260 148.3785 226° Southwest  Level FlightAware Approximate
06:46AM 43.1452 148.2636 226° Southwest  Level FlightAware Approximate
06:47AM 43.0642 148.1490 226° Southwest  Level FlightAware Approximate
06:48AM 42.9832 148.0347 226° Southwest  Level FlightAware Approximate
06:49AM 42.9020 147.9207 226° Southwest  Level FlightAware Approximate
06:50AM 42.8208 147.8071 226° Southwest  Level FlightAware Approximate
06:51AM 42.7394 147.6937 226° Southwest  Level FlightAware Approximate
06:52AM 42.6579 147.5806 226° Southwest  Level FlightAware Approximate
06:53AM 42.5763 147.4678 226° Southwest  Level FlightAware Approximate
06:54AM 42.4945 147.3553 225° Southwest  Level FlightAware Approximate
06:55AM 42.4127 147.2431 225° Southwest  Level FlightAware Approximate
06:56AM 42.3308 147.1312 225° Southwest  Level FlightAware Approximate
06:57AM 42.2487 147.0196 225° Southwest  Level FlightAware Approximate
06:58AM 42.1666 146.9083 225° Southwest  Level FlightAware Approximate
06:59AM 42.0843 146.7973 225° Southwest  Level FlightAware Approximate
07:00AM 42.0020 146.6865 225° Southwest  Level FlightAware Approximate
07:01AM 41.9195 146.5760 225° Southwest  Level FlightAware Approximate
07:02AM 41.8371 146.4656 225° Southwest  Level FlightAware Approximate
07:03AM 41.7547 146.3553 225° Southwest  Level FlightAware Approximate
07:04AM 41.6722 146.2453 225° Southwest  Level FlightAware Approximate
07:05AM 41.5896 146.1356 225° Southwest  Level FlightAware Approximate
07:06AM 41.5069 146.0262 225° Southwest  Level FlightAware Approximate
07:07AM 41.4241 145.9171 225° Southwest  Level FlightAware Approximate
07:08AM 41.3412 145.8082 225° Southwest  Level FlightAware Approximate
07:09AM 41.2581 145.6996 225° Southwest  Level FlightAware Approximate
07:10AM 41.1750 145.5913 224° Southwest  Level FlightAware Approximate
07:11AM 41.0918 145.4832 224° Southwest  Level FlightAware Approximate
07:12AM 41.0084 145.3755 224° Southwest  Level FlightAware Approximate
07:13AM 40.9250 145.2680 224° Southwest  Level FlightAware Approximate
07:14AM 40.8415 145.1608 224° Southwest  Level FlightAware Approximate
07:15AM 40.7579 145.0538 224° Southwest  Level FlightAware Approximate
07:16AM 40.6741 144.9471 224° Southwest  Level FlightAware Approximate
07:17AM 40.5903 144.8407 224° Southwest  Level FlightAware Approximate
07:18AM 40.5064 144.7346 224° Southwest  Level FlightAware Approximate
07:19AM 40.4224 144.6287 224° Southwest  Level FlightAware Approximate
07:20AM 40.3382 144.5231 224° Southwest  Level FlightAware Approximate
07:21AM 40.2540 144.4177 224° Southwest  Level FlightAware Approximate
07:22AM 40.1697 144.3126 224° Southwest  Level FlightAware Approximate
07:23AM 40.0853 144.2078 224° Southwest  Level FlightAware Approximate
07:24AM 40.0008 144.1032 223° Southwest  Level FlightAware Approximate
07:25AM 39.9172 144.0001 223° Southwest  Level FlightAware Approximate
07:26AM 39.8335 143.8972 223° Southwest  Level FlightAware Approximate
07:27AM 39.7497 143.7946 223° Southwest  Level FlightAware Approximate
07:28AM 39.6658 143.6922 223° Southwest  Level FlightAware Approximate
07:29AM 39.5818 143.5901 223° Southwest  Level FlightAware Approximate
07:30AM 39.4977 143.4882 223° Southwest  Level FlightAware Approximate
07:31AM 39.4135 143.3866 223° Southwest  Level FlightAware Approximate
07:32AM 39.3293 143.2852 223° Southwest  Level FlightAware Approximate
07:33AM 39.2448 143.1843 223° Southwest  Level FlightAware Approximate
07:34AM 39.1600 143.0838 223° Southwest  Level FlightAware Approximate
07:35AM 39.0752 142.9836 223° Southwest  Level FlightAware Approximate
07:36AM 38.9903 142.8836 222° Southwest  Level FlightAware Approximate
07:37AM 38.9053 142.7838 222° Southwest  Level FlightAware Approximate
07:38AM 38.8203 142.6843 222° Southwest  Level FlightAware Approximate
07:39AM 38.7351 142.5850 222° Southwest  Level FlightAware Approximate
07:40AM 38.6499 142.4859 222° Southwest  Level FlightAware Approximate
07:41AM 38.5646 142.3871 222° Southwest  Level FlightAware Approximate
07:42AM 38.4792 142.2885 222° Southwest  Level FlightAware Approximate
07:43AM 38.3937 142.1902 222° Southwest  Level FlightAware Approximate
07:44AM 38.3081 142.0921 222° Southwest  Level FlightAware Approximate
07:45AM 38.2225 141.9942 222° Southwest  Level FlightAware Approximate
07:46AM 38.1367 141.8965 222° Southwest  Level FlightAware Approximate
07:47AM 38.0509 141.7991 222° Southwest  Level FlightAware Approximate
07:48AM 37.9650 141.7019 222° Southwest  Level FlightAware Approximate
07:49AM 37.8791 141.6049 222° Southwest  Level FlightAware Approximate
07:50AM 37.7930 141.5082 222° Southwest  Level FlightAware Approximate
07:51AM 37.7069 141.4117 222° Southwest  Level FlightAware Approximate
07:52AM 37.6231 141.3122 225° Southwest  Level FlightAware Approximate
07:53AM 37.5388 141.2133 222° Southwest  Level FlightAware Approximate
07:54AM 37.4518 141.1185 218° Southwest  Level FlightAware Approximate
07:55AM 37.3639 141.0251 221° Southwest  Level FlightAware Approximate
07:56AM 37.2772 140.9299 221° Southwest  Level FlightAware Approximate
07:57AM 37.1883 140.8382 219° Southwest  Level FlightAware Approximate
07:58AM 37.1026 140.7424 227° Southwest  Level FlightAware Approximate
07:59AM 37.0183 140.6443 222° Southwest  Level FlightAware Approximate
08:00AM 36.9322 140.5489 219° Southwest  Level FlightAware Approximate
08:01AM 36.8424 140.4590 219° Southwest  Level FlightAware Approximate
08:02AM 36.7574 140.3622 224° Southwest  Level FlightAware Approximate
08:03AM 36.6551 140.3109 202° Southwest  Level FlightAware Approximate
08:04AM 36.5483 140.2575 202° Southwest  Level FlightAware Approximate
08:05AM 36.4416 140.2040 202° Southwest  Level FlightAware Approximate
08:06AM 36.3348 140.1507 202° Southwest  Level FlightAware Approximate
08:07AM 36.2281 140.0973 202° Southwest  Level FlightAware Approximate
08:08AM 36.1214 140.0440 202° Southwest  Level FlightAware Approximate
08:09AM 36.0147 139.9906 202° Southwest  Level FlightAware Approximate
08:10AM 35.9070 139.9412 195° South  Level FlightAware Approximate
08:11AM 35.7994 139.8913 202° Southwest  Level FlightAware Approximate
08:12AM 35.6905 139.8462 198° South  Level FlightAware Approximate
08:13AM 35.5847 139.7927 211° Southwest  Level FlightAware Approximate
08:14AM 35.5500 139.7667 211° Southwest  Level FlightAware Approximate
08:15AM 35.5523 139.7797 211° Southwest  Level Estimated
08:16AM 35.5523 139.7797 211° Southwest  Level Estimated
08:17AM 35.5523 139.7797 211° Southwest  Level Estimated
08:18AM 35.5523 139.7797 211° Southwest  Level Estimated
08:19AM 35.5523 139.7797 211° Southwest  Level Estimated
08:20AM 35.5523 139.7797 211° Southwest  Level Estimated
08:21AM 35.5523 139.7797 211° Southwest  Level Estimated
08:22AM 35.5523 139.7797 211° Southwest  Level Estimated
08:23AM 35.5523 139.7797 211° Southwest  Level Estimated
08:24AM 35.5523 139.7797 211° Southwest  Level Estimated
08:25AM 35.5523 139.7797 211° Southwest  Level Estimated
08:26AM 35.5523 139.7797 211° Southwest  Level Estimated
08:27AM 35.5523 139.7797 211° Southwest  Level Estimated
08:28AM 35.5523 139.7797 211° Southwest  Level Estimated
08:29AM 35.5523 139.7797 211° Southwest  Level Estimated
08:30AM 35.5523 139.7797 211° Southwest  Level Estimated
08:31AM 35.5523 139.7797 211° Southwest  Level Estimated
08:32AM 35.5523 139.7797 211° Southwest  Level Estimated
08:33AM 35.5523 139.7797 211° Southwest  Level Estimated
08:34AM 35.5523 139.7797 211° Southwest  Level Estimated
08:35AM 35.5523 139.7797 211° Southwest  Level Estimated